createdAt,value
2024-05-09T00:00:57.492Z,100.00
2024-05-09T00:03:02.228Z,100.00
2024-05-09T00:05:07.473Z,100.00
2024-05-09T00:07:12.234Z,100.00
2024-05-09T00:09:16.927Z,100.00
2024-05-09T00:11:23.191Z,100.00
2024-05-09T00:13:30.599Z,100.00
2024-05-09T00:15:36.147Z,100.00
2024-05-09T00:17:41.520Z,100.00
2024-05-09T00:19:47.004Z,100.00
2024-05-09T00:21:51.792Z,100.00
2024-05-09T00:23:56.498Z,100.00
2024-05-09T00:26:01.256Z,100.00
2024-05-09T00:28:08.857Z,100.00
2024-05-09T00:30:24.219Z,100.00
2024-05-09T00:32:36.443Z,100.00
2024-05-09T00:34:41.329Z,100.00
2024-05-09T00:36:46.019Z,100.00
2024-05-09T00:38:50.622Z,100.00
2024-05-09T00:40:55.328Z,100.00
2024-05-09T00:43:00.011Z,100.00
2024-05-09T00:45:02.137Z,100.00
2024-05-09T00:47:09.941Z,100.00
2024-05-09T00:49:15.060Z,100.00
2024-05-09T00:51:20.074Z,100.00
2024-05-09T00:53:24.874Z,100.00
2024-05-09T00:55:30.512Z,100.00
2024-05-09T00:57:35.460Z,100.00
2024-05-09T00:59:40.346Z,100.00
2024-05-09T01:01:46.206Z,100.00
2024-05-09T01:03:52.232Z,100.00
2024-05-09T01:06:01.254Z,100.00
2024-05-09T01:08:07.707Z,100.00
2024-05-09T01:10:17.414Z,100.00
2024-05-09T01:13:21.959Z,100.00
2024-05-09T01:15:30.563Z,100.00
2024-05-09T01:17:36.297Z,100.00
2024-05-09T01:19:41.223Z,100.00
2024-05-09T01:21:46.424Z,100.00
2024-05-09T01:23:54.144Z,100.00
2024-05-09T01:25:59.209Z,100.00
2024-05-09T01:28:04.213Z,100.00
2024-05-09T01:30:17.289Z,100.00
2024-05-09T01:32:26.481Z,100.00
2024-05-09T01:34:31.420Z,100.00
2024-05-09T01:36:37.330Z,100.00
2024-05-09T01:38:42.422Z,100.00
2024-05-09T01:40:50.887Z,100.00
2024-05-09T01:42:55.855Z,100.00
2024-05-09T01:45:00.767Z,100.00
2024-05-09T01:47:05.699Z,100.00
2024-05-09T01:49:08.229Z,100.00
2024-05-09T01:51:13.599Z,100.00
2024-05-09T01:53:18.447Z,100.00
2024-05-09T01:55:20.567Z,100.00
2024-05-09T01:57:34.366Z,100.00
2024-05-09T01:59:40.487Z,100.00
2024-05-09T02:01:56.463Z,100.00
2024-05-09T02:04:02.836Z,100.00
2024-05-09T02:06:08.603Z,100.00
2024-05-09T02:08:17.185Z,100.00
2024-05-09T02:10:31.747Z,100.00
2024-05-09T02:12:40.325Z,100.00
2024-05-09T02:14:49.085Z,100.00
2024-05-09T02:16:53.857Z,100.00
2024-05-09T02:18:58.724Z,100.00
2024-05-09T02:21:03.730Z,100.00
2024-05-09T02:23:08.699Z,100.00
2024-05-09T02:25:14.057Z,100.00
2024-05-09T02:27:18.862Z,100.00
2024-05-09T02:29:26.697Z,100.00
2024-05-09T02:31:32.019Z,100.00
2024-05-09T02:33:34.291Z,100.00
2024-05-09T02:35:39.269Z,100.00
2024-05-09T02:37:41.872Z,100.00
2024-05-09T02:39:46.593Z,100.00
2024-05-09T02:41:48.818Z,100.00
2024-05-09T02:43:53.840Z,100.00
2024-05-09T02:45:58.606Z,100.00
2024-05-09T02:48:03.529Z,100.00
2024-05-09T02:50:08.228Z,100.00
2024-05-09T02:52:13.379Z,100.00
2024-05-09T02:54:15.514Z,100.00
2024-05-09T02:56:21.485Z,100.00
2024-05-09T02:58:24.824Z,100.00
2024-05-09T03:00:37.649Z,100.00
2024-05-09T03:02:45.754Z,100.00
2024-05-09T03:04:51.634Z,100.00
2024-05-09T03:06:53.804Z,100.00
2024-05-09T03:08:58.549Z,100.00
2024-05-09T03:11:00.803Z,100.00
2024-05-09T03:13:09.074Z,100.00
2024-05-09T03:15:11.406Z,100.00
2024-05-09T03:17:16.216Z,100.00
2024-05-09T03:19:21.166Z,100.00
2024-05-09T03:21:26.212Z,100.00
2024-05-09T03:23:28.460Z,100.00
2024-05-09T03:25:33.360Z,100.00
2024-05-09T03:27:37.968Z,100.00
2024-05-09T03:29:42.907Z,100.00
2024-05-09T03:31:45.434Z,100.00
2024-05-09T03:33:50.347Z,100.00
2024-05-09T03:35:55.136Z,100.00
2024-05-09T03:37:59.964Z,100.00
2024-05-09T03:40:02.929Z,100.00
2024-05-09T03:42:08.226Z,100.00
2024-05-09T03:44:10.430Z,100.00
2024-05-09T03:46:15.424Z,100.00
2024-05-09T03:48:17.872Z,100.00
2024-05-09T03:50:30.135Z,100.00
2024-05-09T03:52:38.723Z,100.00
2024-05-09T03:54:47.927Z,100.00
2024-05-09T03:56:50.049Z,100.00
2024-05-09T03:58:54.787Z,100.00
2024-05-09T04:00:56.991Z,100.00
2024-05-09T04:03:02.430Z,100.00
2024-05-09T04:05:05.205Z,100.00
2024-05-09T04:07:10.304Z,100.00
2024-05-09T04:09:15.160Z,100.00
2024-05-09T04:11:20.103Z,100.00
2024-05-09T04:13:22.303Z,100.00
2024-05-09T04:15:27.151Z,100.00
2024-05-09T04:17:29.753Z,100.00
2024-05-09T04:19:34.805Z,100.00
2024-05-09T04:21:37.022Z,100.00
2024-05-09T04:23:42.334Z,100.00
2024-05-09T04:25:47.208Z,100.00
2024-05-09T04:27:55.753Z,100.00
2024-05-09T04:29:57.901Z,100.00
2024-05-09T04:32:02.813Z,100.00
2024-05-09T04:34:05.573Z,100.00
2024-05-09T04:36:10.663Z,100.00
2024-05-09T04:38:14.225Z,100.00
2024-05-09T04:40:24.477Z,100.00
2024-05-09T04:42:36.202Z,100.00
2024-05-09T04:44:40.899Z,100.00
2024-05-09T04:46:43.476Z,100.00
2024-05-09T04:48:49.153Z,100.00
2024-05-09T04:50:51.618Z,100.00
2024-05-09T04:52:56.689Z,100.00
2024-05-09T04:54:59.075Z,100.00
2024-05-09T04:57:03.850Z,100.00
2024-05-09T04:59:08.804Z,100.00
2024-05-09T05:01:13.576Z,100.00
2024-05-09T05:03:16.765Z,100.00
2024-05-09T05:05:21.959Z,100.00
2024-05-09T05:07:24.344Z,100.00
2024-05-09T05:09:32.488Z,100.00
2024-05-09T05:11:34.809Z,100.00
2024-05-09T05:13:41.505Z,100.00
2024-05-09T05:15:46.716Z,100.00
2024-05-09T05:17:51.758Z,100.00
2024-05-09T05:19:54.884Z,100.00
2024-05-09T05:21:59.820Z,100.00
2024-05-09T05:24:01.932Z,100.00
2024-05-09T05:26:08.108Z,100.00
2024-05-09T05:28:10.709Z,100.00
2024-05-09T05:30:21.266Z,100.00
2024-05-09T05:32:30.394Z,100.00
2024-05-09T05:34:35.385Z,100.00
2024-05-09T05:36:37.615Z,100.00
2024-05-09T05:38:42.761Z,100.00
2024-05-09T05:40:45.129Z,100.00
2024-05-09T05:42:47.328Z,100.00
2024-05-09T05:44:52.199Z,100.00
2024-05-09T05:46:54.379Z,100.00
2024-05-09T05:49:01.817Z,100.00
2024-05-09T05:51:05.804Z,100.00
2024-05-09T05:53:11.041Z,100.00
2024-05-09T05:55:13.538Z,100.00
2024-05-09T05:57:19.120Z,100.00
2024-05-09T05:59:24.022Z,100.00
2024-05-09T06:01:28.915Z,100.00
2024-05-09T06:03:31.454Z,100.00
2024-05-09T06:05:40.062Z,100.00
2024-05-09T06:07:42.763Z,100.00
2024-05-09T06:09:48.277Z,88.44
2024-05-09T06:11:52.164Z,92.41
2024-05-09T06:13:56.974Z,85.08
2024-05-09T06:16:00.781Z,79.99
2024-05-09T06:18:08.067Z,74.70
2024-05-09T06:20:20.141Z,78.72
2024-05-09T06:22:31.913Z,71.49
2024-05-09T06:24:34.012Z,70.23
2024-05-09T06:26:38.821Z,62.77
2024-05-09T06:28:41.065Z,62.19
2024-05-09T06:30:45.802Z,62.53
2024-05-09T06:32:48.013Z,88.62
2024-05-09T06:34:52.897Z,68.32
2024-05-09T06:36:55.108Z,73.89
2024-05-09T06:39:02.475Z,63.46
2024-05-09T06:41:05.935Z,81.33
2024-05-09T06:43:14.367Z,65.83
2024-05-09T06:45:17.062Z,59.05
2024-05-09T06:47:21.940Z,53.86
2024-05-09T06:49:29.130Z,54.41
2024-05-09T06:51:34.015Z,50.44
2024-05-09T06:53:39.168Z,49.56
2024-05-09T06:55:46.896Z,47.20
2024-05-09T06:57:49.580Z,50.13
2024-05-09T06:59:56.661Z,50.33
2024-05-09T07:01:58.873Z,49.71
2024-05-09T07:04:03.809Z,54.52
2024-05-09T07:06:06.118Z,48.40
2024-05-09T07:08:11.114Z,49.88
2024-05-09T07:10:21.529Z,47.15
2024-05-09T07:12:33.705Z,44.28
2024-05-09T07:14:37.983Z,42.38
2024-05-09T07:16:44.526Z,41.15
2024-05-09T07:18:49.730Z,41.53
2024-05-09T07:20:54.714Z,41.82
2024-05-09T07:22:56.971Z,42.11
2024-05-09T07:25:01.791Z,40.57
2024-05-09T07:27:04.588Z,40.93
2024-05-09T07:29:12.015Z,40.04
2024-05-09T07:31:14.224Z,41.37
2024-05-09T07:33:20.303Z,41.91
2024-05-09T07:35:24.125Z,42.51
2024-05-09T07:37:28.842Z,41.68
2024-05-09T07:39:31.023Z,40.48
2024-05-09T07:41:36.079Z,39.62
2024-05-09T07:43:40.922Z,42.39
2024-05-09T07:45:53.691Z,47.29
2024-05-09T07:49:44.350Z,45.43
2024-05-09T07:53:32.387Z,40.21
2024-05-09T07:54:52.913Z,40.35
2024-05-09T07:56:55.525Z,42.18
2024-05-09T07:59:00.379Z,41.83
2024-05-09T08:01:05.706Z,40.25
2024-05-09T08:03:13.117Z,39.26
2024-05-09T08:05:15.714Z,38.96
2024-05-09T08:07:21.721Z,39.20
2024-05-09T08:09:23.860Z,39.77
2024-05-09T08:11:28.895Z,39.78
2024-05-09T08:13:31.038Z,42.50
2024-05-09T08:15:37.855Z,41.94
2024-05-09T08:17:42.815Z,42.50
2024-05-09T08:19:47.888Z,42.00
2024-05-09T08:21:50.261Z,41.96
2024-05-09T08:23:55.101Z,41.14
2024-05-09T08:25:57.261Z,40.19
2024-05-09T08:28:02.134Z,40.86
2024-05-09T08:30:06.252Z,39.81
2024-05-09T08:32:14.218Z,39.12
2024-05-09T08:34:21.669Z,40.64
2024-05-09T08:36:26.684Z,39.49
2024-05-09T08:38:30.701Z,41.93
2024-05-09T08:40:37.268Z,41.50
2024-05-09T08:42:47.938Z,41.04
2024-05-09T08:44:53.113Z,39.86
2024-05-09T08:46:55.455Z,40.86
2024-05-09T08:49:00.469Z,40.36
2024-05-09T08:51:06.486Z,38.84
2024-05-09T08:53:11.504Z,39.54
2024-05-09T08:55:14.325Z,39.14
2024-05-09T08:57:19.837Z,40.03
2024-05-09T08:59:28.085Z,38.02
2024-05-09T09:01:37.987Z,38.50
2024-05-09T09:03:41.711Z,36.35
2024-05-09T09:05:52.840Z,35.63
2024-05-09T09:07:57.716Z,40.21
2024-05-09T09:10:03.239Z,39.70
2024-05-09T09:12:08.573Z,41.28
2024-05-09T09:14:15.460Z,41.50
2024-05-09T09:16:17.812Z,40.81
2024-05-09T09:18:22.946Z,39.82
2024-05-09T09:20:33.853Z,39.46
2024-05-09T09:22:42.475Z,37.67
2024-05-09T09:24:47.511Z,38.81
2024-05-09T09:26:52.713Z,38.87
2024-05-09T09:29:00.175Z,37.20
2024-05-09T09:31:05.627Z,36.56
2024-05-09T09:33:10.770Z,37.02
2024-05-09T09:35:15.842Z,35.29
2024-05-09T09:37:23.005Z,36.74
2024-05-09T09:39:30.790Z,34.19
2024-05-09T09:41:37.284Z,34.74
2024-05-09T09:43:43.227Z,34.30
2024-05-09T09:45:46.446Z,33.75
2024-05-09T09:47:51.951Z,34.73
2024-05-09T09:49:54.380Z,34.87
2024-05-09T09:52:00.015Z,35.93
2024-05-09T09:54:03.445Z,34.44
2024-05-09T09:56:10.254Z,35.54
2024-05-09T09:58:16.974Z,34.69
2024-05-09T10:00:26.838Z,34.97
2024-05-09T10:02:35.761Z,34.38
2024-05-09T10:04:38.049Z,35.25
2024-05-09T10:06:45.662Z,35.15
2024-05-09T10:08:48.544Z,33.21
2024-05-09T10:10:53.530Z,33.17
2024-05-09T10:12:59.671Z,33.94
2024-05-09T10:15:10.491Z,34.10
2024-05-09T10:17:12.616Z,35.47
2024-05-09T10:19:25.405Z,35.49
2024-05-09T10:21:30.653Z,33.99
2024-05-09T10:23:34.449Z,34.95
2024-05-09T10:25:39.266Z,34.33
2024-05-09T10:27:41.411Z,34.55
2024-05-09T10:29:55.763Z,33.09
2024-05-09T10:32:00.591Z,34.58
2024-05-09T10:34:09.632Z,37.38
2024-05-09T10:36:12.621Z,37.30
2024-05-09T10:38:17.758Z,35.80
2024-05-09T10:40:26.429Z,37.48
2024-05-09T10:42:36.358Z,36.01
2024-05-09T10:44:38.884Z,34.93
2024-05-09T10:46:42.223Z,34.58
2024-05-09T10:48:50.133Z,34.37
2024-05-09T10:50:52.392Z,33.50
2024-05-09T10:52:57.087Z,33.01
2024-05-09T10:55:00.367Z,33.44
2024-05-09T10:57:07.385Z,33.84
2024-05-09T10:59:09.471Z,33.77
2024-05-09T11:01:14.515Z,34.34
2024-05-09T11:03:17.997Z,33.67
2024-05-09T11:05:25.658Z,33.83
2024-05-09T11:07:28.008Z,33.66
2024-05-09T11:09:34.116Z,34.91
2024-05-09T11:11:36.342Z,34.87
2024-05-09T11:13:42.246Z,36.33
2024-05-09T11:15:44.435Z,35.36
2024-05-09T11:17:49.199Z,36.18
2024-05-09T11:19:51.385Z,35.71
2024-05-09T11:22:01.710Z,35.41
2024-05-09T11:24:05.972Z,35.01
2024-05-09T11:26:15.164Z,34.95
2024-05-09T11:28:17.952Z,33.79
2024-05-09T11:30:29.768Z,33.85
2024-05-09T11:32:37.864Z,34.98
2024-05-09T11:34:43.297Z,35.10
2024-05-09T11:36:45.520Z,34.96
2024-05-09T11:38:53.003Z,34.40
2024-05-09T11:40:56.233Z,35.08
2024-05-09T11:43:01.732Z,33.70
2024-05-09T11:45:04.382Z,32.53
2024-05-09T11:47:09.198Z,33.51
2024-05-09T11:49:12.790Z,33.65
2024-05-09T11:51:17.706Z,36.22
2024-05-09T11:53:19.816Z,37.04
2024-05-09T11:55:27.429Z,36.08
2024-05-09T11:57:33.432Z,35.94
2024-05-09T11:59:36.004Z,35.83
2024-05-09T12:01:43.176Z,36.49
2024-05-09T12:03:48.777Z,35.67
2024-05-09T12:05:56.667Z,35.88
2024-05-09T12:07:59.895Z,34.29
2024-05-09T12:10:06.184Z,34.02
2024-05-09T12:12:13.260Z,35.62
2024-05-09T12:14:18.288Z,33.52
2024-05-09T12:16:20.681Z,33.02
2024-05-09T12:18:26.482Z,33.58
2024-05-09T12:20:35.821Z,33.20
2024-05-09T12:22:43.424Z,32.88
2024-05-09T12:24:45.509Z,34.34
2024-05-09T12:26:51.576Z,32.94
2024-05-09T12:28:56.348Z,32.48
2024-05-09T12:30:58.461Z,32.15
2024-05-09T12:33:03.593Z,33.63
2024-05-09T12:35:06.049Z,33.47
2024-05-09T12:37:08.185Z,32.65
2024-05-09T12:39:12.953Z,33.60
2024-05-09T12:41:15.447Z,33.59
2024-05-09T12:43:20.511Z,34.47
2024-05-09T12:45:25.288Z,35.50
2024-05-09T12:47:30.291Z,34.41
2024-05-09T12:49:32.670Z,35.20
2024-05-09T12:51:37.478Z,34.18
2024-05-09T12:53:39.529Z,33.79
2024-05-09T12:55:53.284Z,33.42
2024-05-09T12:57:59.417Z,33.80
2024-05-09T13:00:05.766Z,33.03
2024-05-09T13:02:12.612Z,32.13
2024-05-09T13:04:17.839Z,33.19
2024-05-09T13:06:20.059Z,32.73
2024-05-09T13:08:24.944Z,32.71
2024-05-09T13:10:32.069Z,33.12
2024-05-09T13:12:38.482Z,31.58
2024-05-09T13:14:40.582Z,32.75
2024-05-09T13:16:45.444Z,33.05
2024-05-09T13:18:50.685Z,32.35
2024-05-09T13:20:56.619Z,33.00
2024-05-09T13:22:59.965Z,32.97
2024-05-09T13:25:04.831Z,33.30
2024-05-09T13:27:07.040Z,33.54
2024-05-09T13:29:11.783Z,32.34
2024-05-09T13:31:14.023Z,32.79
2024-05-09T13:33:19.076Z,34.30
2024-05-09T13:35:23.925Z,35.07
2024-05-09T13:37:28.770Z,35.53
2024-05-09T13:39:30.848Z,35.40
2024-05-09T13:41:35.763Z,35.53
2024-05-09T13:43:38.913Z,36.07
2024-05-09T13:45:43.795Z,36.07
2024-05-09T13:47:46.003Z,36.22
2024-05-09T13:49:51.049Z,37.12
2024-05-09T13:51:56.103Z,35.42
2024-05-09T13:54:01.868Z,34.94
2024-05-09T13:56:04.436Z,34.27
2024-05-09T13:58:09.909Z,32.88
2024-05-09T14:00:26.438Z,34.21
2024-05-09T14:02:37.536Z,34.00
2024-05-09T14:04:40.053Z,32.41
2024-05-09T14:06:45.087Z,32.41
2024-05-09T14:08:50.204Z,31.94
2024-05-09T14:10:56.287Z,32.04
2024-05-09T14:12:58.582Z,32.69
2024-05-09T14:15:03.415Z,31.37
2024-05-09T14:17:05.679Z,31.78
2024-05-09T14:19:12.137Z,33.19
2024-05-09T14:21:14.355Z,32.70
2024-05-09T14:23:20.382Z,32.71
2024-05-09T14:25:26.720Z,31.80
2024-05-09T14:27:32.355Z,31.92
2024-05-09T14:29:35.491Z,31.75
2024-05-09T14:31:40.220Z,31.76
2024-05-09T14:33:42.501Z,32.10
2024-05-09T14:35:47.296Z,30.55
2024-05-09T14:37:49.456Z,31.40
2024-05-09T14:39:54.210Z,32.93
2024-05-09T14:41:59.112Z,31.82
2024-05-09T14:44:03.804Z,31.94
2024-05-09T14:46:06.284Z,33.06
2024-05-09T14:48:11.907Z,32.22
2024-05-09T14:50:23.640Z,31.40
2024-05-09T14:52:32.988Z,32.41
2024-05-09T14:54:35.304Z,32.82
2024-05-09T14:56:40.049Z,33.00
2024-05-09T14:58:44.875Z,33.10
2024-05-09T15:00:51.277Z,33.19
2024-05-09T15:02:55.001Z,33.33
2024-05-09T15:04:57.307Z,33.37
2024-05-09T15:07:02.771Z,33.59
2024-05-09T15:09:06.619Z,32.91
2024-05-09T15:11:11.841Z,33.49
2024-05-09T15:13:16.703Z,34.10
2024-05-09T15:15:24.598Z,34.18
2024-05-09T15:17:27.152Z,34.65
2024-05-09T15:19:32.171Z,34.25
2024-05-09T15:21:34.592Z,34.54
2024-05-09T15:23:39.501Z,34.25
2024-05-09T15:25:41.928Z,34.14
2024-05-09T15:27:46.999Z,33.97
2024-05-09T15:29:49.390Z,35.15
2024-05-09T15:31:56.806Z,34.06
2024-05-09T15:33:59.049Z,34.45
2024-05-09T15:36:03.889Z,35.12
2024-05-09T15:38:07.006Z,34.22
2024-05-09T15:40:18.508Z,34.51
2024-05-09T15:42:27.971Z,34.48
2024-05-09T15:44:32.807Z,34.39
2024-05-09T15:46:34.980Z,35.62
2024-05-09T15:48:44.775Z,34.41
2024-05-09T15:50:47.493Z,35.08
2024-05-09T15:52:53.617Z,35.38
2024-05-09T15:54:55.726Z,36.88
2024-05-09T15:57:00.592Z,36.19
2024-05-09T15:59:03.163Z,36.70
2024-05-09T16:01:08.361Z,36.43
2024-05-09T16:03:11.497Z,37.07
2024-05-09T16:05:17.469Z,36.65
2024-05-09T16:07:22.344Z,36.13
2024-05-09T16:09:24.547Z,36.90
2024-05-09T16:11:29.612Z,37.04
2024-05-09T16:13:31.933Z,36.43
2024-05-09T16:15:37.704Z,36.53
2024-05-09T16:17:39.915Z,36.94
2024-05-09T16:19:44.574Z,36.46
2024-05-09T16:21:49.474Z,36.30
2024-05-09T16:23:54.258Z,36.91
2024-05-09T16:25:56.806Z,36.61
2024-05-09T16:28:02.012Z,36.54
2024-05-09T16:30:09.295Z,36.79
2024-05-09T16:32:16.797Z,36.67
2024-05-09T16:34:19.150Z,36.36
2024-05-09T16:36:29.188Z,36.04
2024-05-09T16:38:33.939Z,36.47
2024-05-09T16:40:41.292Z,36.05
2024-05-09T16:42:43.832Z,36.90
2024-05-09T16:44:48.662Z,35.63
2024-05-09T16:46:52.254Z,36.19
2024-05-09T16:48:58.023Z,36.54
2024-05-09T16:51:00.152Z,36.73
2024-05-09T16:53:05.956Z,36.78
2024-05-09T16:55:11.984Z,36.73
2024-05-09T16:57:16.969Z,37.11
2024-05-09T16:59:21.727Z,37.17
2024-05-09T17:01:28.966Z,37.19
2024-05-09T17:03:31.490Z,38.01
2024-05-09T17:05:36.942Z,37.92
2024-05-09T17:07:40.679Z,37.93
2024-05-09T17:09:45.571Z,38.16
2024-05-09T17:11:50.801Z,38.62
2024-05-09T17:13:55.622Z,38.19
2024-05-09T17:15:57.852Z,38.64
2024-05-09T17:18:05.095Z,38.61
2024-05-09T17:20:22.589Z,39.17
2024-05-09T17:22:32.158Z,39.17
2024-05-09T17:24:37.066Z,39.31
2024-05-09T17:26:39.837Z,39.52
2024-05-09T17:28:47.665Z,39.75
2024-05-09T17:30:50.225Z,39.97
2024-05-09T17:32:55.600Z,40.42
2024-05-09T17:34:57.833Z,39.88
2024-05-09T17:37:03.823Z,39.93
2024-05-09T17:39:06.076Z,40.32
2024-05-09T17:41:11.247Z,40.27
2024-05-09T17:43:13.777Z,41.15
2024-05-09T17:45:21.273Z,41.29
2024-05-09T17:47:24.072Z,41.20
2024-05-09T17:49:29.131Z,41.34
2024-05-09T17:51:31.840Z,41.42
2024-05-09T17:53:39.585Z,42.02
2024-05-09T17:55:41.943Z,41.98
2024-05-09T17:57:46.969Z,41.59
2024-05-09T17:59:51.961Z,41.83
2024-05-09T18:02:01.078Z,42.29
2024-05-09T18:04:03.813Z,41.62
2024-05-09T18:06:08.975Z,42.65
2024-05-09T18:08:11.101Z,42.48
2024-05-09T18:10:22.218Z,42.71
2024-05-09T18:12:28.272Z,43.58
2024-05-09T18:14:33.298Z,43.56
2024-05-09T18:16:35.604Z,43.89
2024-05-09T18:18:43.385Z,44.49
2024-05-09T18:20:46.682Z,44.71
2024-05-09T18:22:51.656Z,44.34
2024-05-09T18:24:53.940Z,45.04
2024-05-09T18:26:59.097Z,45.28
2024-05-09T18:29:01.485Z,45.32
2024-05-09T18:31:06.634Z,45.41
2024-05-09T18:33:10.352Z,45.60
2024-05-09T18:35:18.863Z,45.77
2024-05-09T18:37:21.131Z,46.12
2024-05-09T18:39:26.235Z,45.71
2024-05-09T18:41:28.629Z,46.26
2024-05-09T18:43:42.245Z,46.81
2024-05-09T18:45:47.755Z,48.25
2024-05-09T18:47:53.908Z,48.77
2024-05-09T18:49:56.120Z,48.77
2024-05-09T18:52:03.809Z,49.27
2024-05-09T18:54:06.030Z,49.45
2024-05-09T18:56:11.978Z,50.33
2024-05-09T18:58:17.450Z,50.85
2024-05-09T19:00:33.136Z,52.92
2024-05-09T19:02:39.261Z,54.18
2024-05-09T19:04:45.326Z,56.76
2024-05-09T19:06:49.700Z,57.83
2024-05-09T19:09:00.695Z,58.24
2024-05-09T19:11:02.887Z,57.55
2024-05-09T19:13:11.779Z,59.02
2024-05-09T19:15:15.837Z,61.37
2024-05-09T19:17:20.793Z,63.53
2024-05-09T19:19:23.402Z,64.69
2024-05-09T19:21:28.275Z,65.57
2024-05-09T19:23:32.550Z,69.24
2024-05-09T19:25:40.489Z,73.55
2024-05-09T19:27:42.746Z,76.07
2024-05-09T19:29:47.538Z,77.50
2024-05-09T19:31:49.684Z,80.04
2024-05-09T19:33:54.448Z,83.72
2024-05-09T19:35:56.645Z,87.26
2024-05-09T19:38:01.427Z,91.05
2024-05-09T19:40:06.876Z,92.06
2024-05-09T19:42:16.423Z,95.13
2024-05-09T19:44:20.034Z,97.70
2024-05-09T19:46:25.090Z,99.74
2024-05-09T19:48:27.463Z,100.00
2024-05-09T19:50:40.446Z,100.00
2024-05-09T19:52:45.885Z,100.00
2024-05-09T19:54:52.675Z,100.00
2024-05-09T19:56:56.496Z,100.00
2024-05-09T19:59:04.489Z,100.00
2024-05-09T20:01:06.605Z,100.00
2024-05-09T20:03:15.662Z,100.00
2024-05-09T20:05:18.358Z,100.00
2024-05-09T20:07:23.291Z,100.00
2024-05-09T20:09:28.535Z,100.00
2024-05-09T20:11:34.651Z,100.00
2024-05-09T20:13:39.851Z,100.00
2024-05-09T20:15:47.392Z,100.00
2024-05-09T20:17:49.895Z,100.00
2024-05-09T20:19:55.541Z,100.00
2024-05-09T20:21:57.853Z,100.00
2024-05-09T20:24:02.800Z,100.00
2024-05-09T20:26:05.534Z,100.00
2024-05-09T20:28:10.883Z,100.00
2024-05-09T20:30:20.900Z,100.00
2024-05-09T20:32:32.718Z,100.00
2024-05-09T20:34:35.049Z,100.00
2024-05-09T20:36:40.221Z,100.00
2024-05-09T20:38:42.511Z,100.00
2024-05-09T20:40:47.678Z,100.00
2024-05-09T20:42:50.199Z,100.00
2024-05-09T20:44:55.105Z,100.00
2024-05-09T20:46:58.804Z,100.00
2024-05-09T20:49:08.063Z,100.00
2024-05-09T20:51:10.579Z,100.00
2024-05-09T20:53:18.098Z,100.00
2024-05-09T20:55:21.099Z,100.00
2024-05-09T20:57:26.174Z,100.00
2024-05-09T20:59:28.803Z,100.00
2024-05-09T21:01:37.124Z,100.00
2024-05-09T21:03:43.306Z,100.00
2024-05-09T21:05:50.899Z,100.00
2024-05-09T21:07:53.131Z,100.00
2024-05-09T21:09:57.879Z,100.00
2024-05-09T21:12:00.082Z,100.00
2024-05-09T21:14:04.882Z,100.00
2024-05-09T21:16:08.370Z,100.00
2024-05-09T21:18:13.232Z,100.00
2024-05-09T21:20:20.268Z,100.00
2024-05-09T21:22:31.170Z,100.00
2024-05-09T21:24:33.285Z,100.00
2024-05-09T21:26:38.075Z,100.00
2024-05-09T21:28:40.201Z,100.00
2024-05-09T21:30:44.987Z,100.00
2024-05-09T21:32:47.153Z,100.00
2024-05-09T21:34:51.924Z,100.00
2024-05-09T21:36:54.047Z,100.00
2024-05-09T21:39:01.447Z,100.00
2024-05-09T21:41:03.659Z,100.00
2024-05-09T21:43:12.013Z,100.00
2024-05-09T21:45:14.278Z,100.00
2024-05-09T21:47:19.135Z,100.00
2024-05-09T21:49:21.543Z,100.00
2024-05-09T21:51:26.360Z,100.00
2024-05-09T21:53:28.441Z,100.00
2024-05-09T21:55:35.977Z,100.00
2024-05-09T21:57:38.268Z,100.00
2024-05-09T21:59:43.097Z,100.00
2024-05-09T22:01:45.334Z,100.00
2024-05-09T22:03:51.041Z,100.00
2024-05-09T22:05:53.217Z,100.00
2024-05-09T22:07:57.993Z,100.00
2024-05-09T22:10:00.208Z,100.00
2024-05-09T22:12:08.007Z,100.00
2024-05-09T22:14:10.191Z,100.00
2024-05-09T22:16:15.022Z,100.00
2024-05-09T22:18:17.296Z,100.00
2024-05-09T22:20:29.062Z,100.00
2024-05-09T22:22:38.027Z,100.00
2024-05-09T22:24:42.750Z,100.00
2024-05-09T22:26:44.834Z,100.00
2024-05-09T22:28:52.230Z,100.00
2024-05-09T22:30:55.556Z,100.00
2024-05-09T22:33:00.421Z,100.00
2024-05-09T22:35:03.102Z,100.00
2024-05-09T22:37:07.945Z,100.00
2024-05-09T22:39:10.153Z,100.00
2024-05-09T22:41:15.548Z,100.00
2024-05-09T22:43:19.548Z,100.00
2024-05-09T22:45:27.274Z,100.00
2024-05-09T22:47:29.843Z,100.00
2024-05-09T22:49:34.666Z,100.00
2024-05-09T22:51:36.843Z,100.00
2024-05-09T22:53:41.552Z,100.00
2024-05-09T22:55:43.632Z,100.00
2024-05-09T22:57:48.391Z,100.00
2024-05-09T22:59:50.797Z,100.00
2024-05-09T23:01:58.370Z,100.00
2024-05-09T23:04:00.981Z,100.00
2024-05-09T23:06:08.941Z,100.00
2024-05-09T23:08:11.050Z,100.00
2024-05-09T23:10:21.436Z,100.00
2024-05-09T23:12:30.395Z,100.00
2024-05-09T23:14:35.243Z,100.00
2024-05-09T23:16:37.415Z,100.00
2024-05-09T23:18:44.773Z,100.00
2024-05-09T23:20:46.962Z,100.00
2024-05-09T23:22:51.763Z,100.00
2024-05-09T23:24:53.950Z,100.00
2024-05-09T23:26:58.725Z,100.00
2024-05-09T23:29:01.192Z,100.00
2024-05-09T23:31:05.931Z,100.00
2024-05-09T23:33:09.214Z,100.00
2024-05-09T23:35:16.791Z,100.00
2024-05-09T23:37:18.955Z,100.00
2024-05-09T23:39:23.787Z,100.00
2024-05-09T23:41:25.865Z,100.00
2024-05-09T23:43:30.594Z,100.00
2024-05-09T23:45:32.831Z,100.00
2024-05-09T23:47:38.063Z,100.00
2024-05-09T23:49:40.427Z,100.00
2024-05-09T23:51:47.950Z,100.00
2024-05-09T23:53:50.035Z,100.00
2024-05-09T23:55:54.678Z,100.00
2024-05-09T23:57:56.727Z,100.00
